sensor_id;sensor_type;location;lat;lon;timestamp;P1;durP1;ratioP1;P2;durP2;ratioP2
4563;SDS011;2294;51.818;8.484;2023-08-01T00:01:19;6.10;;;2.03;;
4563;SDS011;2294;51.818;8.484;2023-08-01T00:03:45;6.70;;;2.23;;
4563;SDS011;2294;51.818;8.484;2023-08-01T00:06:12;5.20;;;1.97;;
4563;SDS011;2294;51.818;8.484;2023-08-01T00:08:39;7.00;;;2.07;;
4563;SDS011;2294;51.818;8.484;2023-08-01T00:11:07;4.77;;;1.83;;
4563;SDS011;2294;51.818;8.484;2023-08-01T00:13:35;5.17;;;2.30;;
4563;SDS011;2294;51.818;8.484;2023-08-01T00:16:02;5.37;;;2.03;;
4563;SDS011;2294;51.818;8.484;2023-08-01T00:18:28;5.50;;;2.30;;
4563;SDS011;2294;51.818;8.484;2023-08-01T00:20:55;10.27;;;1.67;;
4563;SDS011;2294;51.818;8.484;2023-08-01T00:23:23;6.10;;;1.97;;
4563;SDS011;2294;51.818;8.484;2023-08-01T00:25:50;5.70;;;2.27;;
4563;SDS011;2294;51.818;8.484;2023-08-01T00:28:18;4.83;;;2.10;;
4563;SDS011;2294;51.818;8.484;2023-08-01T00:30:45;4.30;;;1.73;;
4563;SDS011;2294;51.818;8.484;2023-08-01T00:33:12;5.73;;;1.70;;
4563;SDS011;2294;51.818;8.484;2023-08-01T00:35:39;4.20;;;1.17;;
4563;SDS011;2294;51.818;8.484;2023-08-01T00:38:06;5.37;;;1.30;;
4563;SDS011;2294;51.818;8.484;2023-08-01T00:40:34;4.10;;;1.50;;
4563;SDS011;2294;51.818;8.484;2023-08-01T00:43:00;5.10;;;1.53;;
4563;SDS011;2294;51.818;8.484;2023-08-01T00:45:29;5.13;;;1.67;;
4563;SDS011;2294;51.818;8.484;2023-08-01T00:47:57;5.00;;;1.57;;
4563;SDS011;2294;51.818;8.484;2023-08-01T00:50:24;4.40;;;1.43;;
4563;SDS011;2294;51.818;8.484;2023-08-01T00:52:51;3.57;;;1.23;;
4563;SDS011;2294;51.818;8.484;2023-08-01T00:55:18;6.97;;;1.50;;
4563;SDS011;2294;51.818;8.484;2023-08-01T00:57:47;4.57;;;1.43;;
4563;SDS011;2294;51.818;8.484;2023-08-01T01:00:14;4.87;;;1.50;;
4563;SDS011;2294;51.818;8.484;2023-08-01T01:02:43;4.10;;;1.37;;
4563;SDS011;2294;51.818;8.484;2023-08-01T01:05:10;6.10;;;1.50;;
4563;SDS011;2294;51.818;8.484;2023-08-01T01:07:37;4.00;;;1.33;;
4563;SDS011;2294;51.818;8.484;2023-08-01T01:10:05;4.07;;;1.33;;
4563;SDS011;2294;51.818;8.484;2023-08-01T01:12:33;4.70;;;1.30;;
4563;SDS011;2294;51.818;8.484;2023-08-01T01:14:59;4.50;;;1.80;;
4563;SDS011;2294;51.818;8.484;2023-08-01T01:17:26;4.20;;;1.50;;
4563;SDS011;2294;51.818;8.484;2023-08-01T01:19:55;4.90;;;1.83;;
4563;SDS011;2294;51.818;8.484;2023-08-01T01:22:24;4.50;;;1.40;;
4563;SDS011;2294;51.818;8.484;2023-08-01T01:24:51;3.93;;;1.47;;
4563;SDS011;2294;51.818;8.484;2023-08-01T01:27:19;5.10;;;2.10;;
4563;SDS011;2294;51.818;8.484;2023-08-01T01:29:47;4.90;;;1.60;;
4563;SDS011;2294;51.818;8.484;2023-08-01T01:32:15;4.20;;;1.70;;
4563;SDS011;2294;51.818;8.484;2023-08-01T01:34:44;4.13;;;1.30;;
4563;SDS011;2294;51.818;8.484;2023-08-01T01:37:11;4.23;;;1.57;;
4563;SDS011;2294;51.818;8.484;2023-08-01T01:39:39;5.33;;;2.00;;
4563;SDS011;2294;51.818;8.484;2023-08-01T01:42:06;7.33;;;2.20;;
4563;SDS011;2294;51.818;8.484;2023-08-01T01:44:33;5.23;;;2.30;;
4563;SDS011;2294;51.818;8.484;2023-08-01T01:47:00;4.90;;;1.90;;
4563;SDS011;2294;51.818;8.484;2023-08-01T01:49:27;4.70;;;1.87;;
4563;SDS011;2294;51.818;8.484;2023-08-01T01:51:54;4.87;;;1.90;;
4563;SDS011;2294;51.818;8.484;2023-08-01T01:54:21;3.80;;;1.30;;
4563;SDS011;2294;51.818;8.484;2023-08-01T01:56:50;4.37;;;1.60;;
4563;SDS011;2294;51.818;8.484;2023-08-01T01:59:16;6.63;;;1.63;;
4563;SDS011;2294;51.818;8.484;2023-08-01T02:01:43;4.07;;;1.50;;
4563;SDS011;2294;51.818;8.484;2023-08-01T02:04:10;5.77;;;1.90;;
4563;SDS011;2294;51.818;8.484;2023-08-01T02:06:37;4.67;;;1.70;;
4563;SDS011;2294;51.818;8.484;2023-08-01T02:09:04;7.43;;;1.87;;
4563;SDS011;2294;51.818;8.484;2023-08-01T02:11:31;4.40;;;1.50;;
4563;SDS011;2294;51.818;8.484;2023-08-01T02:13:59;5.60;;;2.07;;
4563;SDS011;2294;51.818;8.484;2023-08-01T02:16:26;5.50;;;2.10;;
4563;SDS011;2294;51.818;8.484;2023-08-01T02:18:53;5.20;;;2.33;;
4563;SDS011;2294;51.818;8.484;2023-08-01T02:21:20;4.20;;;1.67;;
4563;SDS011;2294;51.818;8.484;2023-08-01T02:23:47;5.50;;;1.97;;
4563;SDS011;2294;51.818;8.484;2023-08-01T02:26:14;4.93;;;1.87;;
4563;SDS011;2294;51.818;8.484;2023-08-01T02:28:41;4.63;;;1.97;;
4563;SDS011;2294;51.818;8.484;2023-08-01T02:31:09;4.90;;;2.13;;
4563;SDS011;2294;51.818;8.484;2023-08-01T02:33:37;4.93;;;1.70;;
4563;SDS011;2294;51.818;8.484;2023-08-01T02:36:04;4.43;;;1.77;;
4563;SDS011;2294;51.818;8.484;2023-08-01T02:38:31;6.37;;;1.90;;
4563;SDS011;2294;51.818;8.484;2023-08-01T02:40:57;4.00;;;1.70;;
4563;SDS011;2294;51.818;8.484;2023-08-01T02:43:24;4.13;;;1.40;;
4563;SDS011;2294;51.818;8.484;2023-08-01T02:45:51;3.80;;;1.13;;
4563;SDS011;2294;51.818;8.484;2023-08-01T02:48:19;3.57;;;1.03;;
4563;SDS011;2294;51.818;8.484;2023-08-01T02:50:46;4.33;;;1.30;;
4563;SDS011;2294;51.818;8.484;2023-08-01T02:53:13;3.97;;;1.43;;
4563;SDS011;2294;51.818;8.484;2023-08-01T02:55:40;3.80;;;1.20;;
4563;SDS011;2294;51.818;8.484;2023-08-01T02:58:08;4.50;;;1.37;;
4563;SDS011;2294;51.818;8.484;2023-08-01T03:00:37;5.97;;;1.37;;
4563;SDS011;2294;51.818;8.484;2023-08-01T03:03:04;3.93;;;1.33;;
4563;SDS011;2294;51.818;8.484;2023-08-01T03:05:32;5.30;;;1.33;;
4563;SDS011;2294;51.818;8.484;2023-08-01T03:08:02;4.10;;;1.30;;
4563;SDS011;2294;51.818;8.484;2023-08-01T03:10:29;4.63;;;1.20;;
4563;SDS011;2294;51.818;8.484;2023-08-01T03:12:56;3.70;;;1.10;;
4563;SDS011;2294;51.818;8.484;2023-08-01T03:15:23;3.37;;;0.93;;
4563;SDS011;2294;51.818;8.484;2023-08-01T03:17:50;3.67;;;1.10;;
4563;SDS011;2294;51.818;8.484;2023-08-01T03:20:16;4.37;;;1.30;;
4563;SDS011;2294;51.818;8.484;2023-08-01T03:22:45;3.80;;;1.50;;
4563;SDS011;2294;51.818;8.484;2023-08-01T03:25:12;4.53;;;1.70;;
4563;SDS011;2294;51.818;8.484;2023-08-01T03:27:38;4.60;;;1.80;;
4563;SDS011;2294;51.818;8.484;2023-08-01T03:30:06;3.90;;;1.40;;
4563;SDS011;2294;51.818;8.484;2023-08-01T03:32:34;4.30;;;1.70;;
4563;SDS011;2294;51.818;8.484;2023-08-01T03:35:02;4.10;;;1.50;;
4563;SDS011;2294;51.818;8.484;2023-08-01T03:37:29;4.70;;;1.80;;
4563;SDS011;2294;51.818;8.484;2023-08-01T03:39:57;5.30;;;1.73;;
4563;SDS011;2294;51.818;8.484;2023-08-01T03:42:25;5.50;;;2.03;;
4563;SDS011;2294;51.818;8.484;2023-08-01T03:44:52;8.63;;;1.70;;
4563;SDS011;2294;51.818;8.484;2023-08-01T03:47:18;4.60;;;1.70;;
4563;SDS011;2294;51.818;8.484;2023-08-01T03:49:45;6.73;;;1.73;;
4563;SDS011;2294;51.818;8.484;2023-08-01T03:52:12;4.67;;;1.80;;
4563;SDS011;2294;51.818;8.484;2023-08-01T03:54:39;5.13;;;2.10;;
4563;SDS011;2294;51.818;8.484;2023-08-01T03:57:07;4.20;;;1.70;;
4563;SDS011;2294;51.818;8.484;2023-08-01T03:59:35;6.00;;;2.00;;
4563;SDS011;2294;51.818;8.484;2023-08-01T04:02:02;4.80;;;1.80;;
4563;SDS011;2294;51.818;8.484;2023-08-01T04:04:29;6.03;;;1.93;;
4563;SDS011;2294;51.818;8.484;2023-08-01T04:06:57;4.20;;;1.80;;
4563;SDS011;2294;51.818;8.484;2023-08-01T04:09:24;5.97;;;2.30;;
4563;SDS011;2294;51.818;8.484;2023-08-01T04:11:50;5.80;;;2.30;;
4563;SDS011;2294;51.818;8.484;2023-08-01T04:14:19;4.63;;;2.00;;
4563;SDS011;2294;51.818;8.484;2023-08-01T04:16:45;5.47;;;2.57;;
4563;SDS011;2294;51.818;8.484;2023-08-01T04:19:12;6.40;;;2.37;;
4563;SDS011;2294;51.818;8.484;2023-08-01T04:21:39;5.83;;;2.57;;
4563;SDS011;2294;51.818;8.484;2023-08-01T04:24:06;5.80;;;2.43;;
4563;SDS011;2294;51.818;8.484;2023-08-01T04:26:33;6.93;;;3.37;;
4563;SDS011;2294;51.818;8.484;2023-08-01T04:29:01;7.13;;;3.23;;
4563;SDS011;2294;51.818;8.484;2023-08-01T04:31:30;7.60;;;3.57;;
4563;SDS011;2294;51.818;8.484;2023-08-01T04:33:56;6.73;;;3.23;;
4563;SDS011;2294;51.818;8.484;2023-08-01T04:36:23;8.63;;;4.37;;
4563;SDS011;2294;51.818;8.484;2023-08-01T04:38:50;8.33;;;4.50;;
4563;SDS011;2294;51.818;8.484;2023-08-01T04:41:17;9.27;;;4.57;;
4563;SDS011;2294;51.818;8.484;2023-08-01T04:43:44;8.93;;;4.83;;
4563;SDS011;2294;51.818;8.484;2023-08-01T04:46:11;8.80;;;4.80;;
4563;SDS011;2294;51.818;8.484;2023-08-01T04:48:39;16.20;;;6.20;;
4563;SDS011;2294;51.818;8.484;2023-08-01T04:51:06;14.97;;;7.10;;
4563;SDS011;2294;51.818;8.484;2023-08-01T04:53:33;19.90;;;6.00;;
4563;SDS011;2294;51.818;8.484;2023-08-01T04:55:59;15.17;;;6.03;;
4563;SDS011;2294;51.818;8.484;2023-08-01T04:58:26;17.17;;;6.47;;
4563;SDS011;2294;51.818;8.484;2023-08-01T05:00:55;10.57;;;5.27;;
4563;SDS011;2294;51.818;8.484;2023-08-01T05:03:22;11.57;;;4.40;;
4563;SDS011;2294;51.818;8.484;2023-08-01T05:05:50;11.00;;;4.47;;
4563;SDS011;2294;51.818;8.484;2023-08-01T05:08:17;11.67;;;4.87;;
4563;SDS011;2294;51.818;8.484;2023-08-01T05:10:44;17.97;;;6.10;;
4563;SDS011;2294;51.818;8.484;2023-08-01T05:13:11;12.40;;;5.50;;
4563;SDS011;2294;51.818;8.484;2023-08-01T05:15:38;14.73;;;5.10;;
4563;SDS011;2294;51.818;8.484;2023-08-01T05:18:04;15.80;;;5.97;;
4563;SDS011;2294;51.818;8.484;2023-08-01T05:20:31;13.63;;;5.83;;
4563;SDS011;2294;51.818;8.484;2023-08-01T05:23:00;17.73;;;6.13;;
4563;SDS011;2294;51.818;8.484;2023-08-01T05:25:27;15.27;;;6.73;;
4563;SDS011;2294;51.818;8.484;2023-08-01T05:27:54;13.97;;;6.50;;
4563;SDS011;2294;51.818;8.484;2023-08-01T05:30:21;15.23;;;6.80;;
4563;SDS011;2294;51.818;8.484;2023-08-01T05:32:48;14.07;;;6.60;;
4563;SDS011;2294;51.818;8.484;2023-08-01T05:35:15;13.53;;;6.57;;
4563;SDS011;2294;51.818;8.484;2023-08-01T05:37:42;16.07;;;8.37;;
4563;SDS011;2294;51.818;8.484;2023-08-01T05:40:11;12.70;;;7.00;;
4563;SDS011;2294;51.818;8.484;2023-08-01T05:42:38;15.03;;;7.30;;
4563;SDS011;2294;51.818;8.484;2023-08-01T05:45:05;18.20;;;7.20;;
4563;SDS011;2294;51.818;8.484;2023-08-01T05:47:32;18.60;;;8.30;;
4563;SDS011;2294;51.818;8.484;2023-08-01T05:50:01;15.10;;;6.03;;
4563;SDS011;2294;51.818;8.484;2023-08-01T05:52:29;13.27;;;6.17;;
4563;SDS011;2294;51.818;8.484;2023-08-01T05:54:56;12.30;;;5.33;;
4563;SDS011;2294;51.818;8.484;2023-08-01T05:57:24;14.00;;;5.53;;
4563;SDS011;2294;51.818;8.484;2023-08-01T05:59:51;12.77;;;5.53;;
4563;SDS011;2294;51.818;8.484;2023-08-01T06:02:18;23.07;;;6.23;;
4563;SDS011;2294;51.818;8.484;2023-08-01T06:04:45;12.83;;;5.33;;
4563;SDS011;2294;51.818;8.484;2023-08-01T06:07:12;15.00;;;5.70;;
4563;SDS011;2294;51.818;8.484;2023-08-01T06:09:39;17.17;;;7.57;;
4563;SDS011;2294;51.818;8.484;2023-08-01T06:12:06;20.30;;;6.50;;
4563;SDS011;2294;51.818;8.484;2023-08-01T06:14:35;12.90;;;6.47;;
4563;SDS011;2294;51.818;8.484;2023-08-01T06:17:01;17.30;;;8.00;;
4563;SDS011;2294;51.818;8.484;2023-08-01T06:19:28;15.70;;;7.10;;
4563;SDS011;2294;51.818;8.484;2023-08-01T06:21:55;23.10;;;7.00;;
4563;SDS011;2294;51.818;8.484;2023-08-01T06:24:22;14.53;;;6.30;;
4563;SDS011;2294;51.818;8.484;2023-08-01T06:26:49;13.23;;;6.20;;
4563;SDS011;2294;51.818;8.484;2023-08-01T06:29:16;18.60;;;7.23;;
4563;SDS011;2294;51.818;8.484;2023-08-01T06:31:44;20.23;;;7.20;;
4563;SDS011;2294;51.818;8.484;2023-08-01T06:34:11;14.67;;;6.87;;
4563;SDS011;2294;51.818;8.484;2023-08-01T06:36:38;17.63;;;6.80;;
4563;SDS011;2294;51.818;8.484;2023-08-01T06:39:04;24.03;;;7.63;;
4563;SDS011;2294;51.818;8.484;2023-08-01T06:41:32;12.87;;;6.47;;
4563;SDS011;2294;51.818;8.484;2023-08-01T06:43:59;13.00;;;6.80;;
4563;SDS011;2294;51.818;8.484;2023-08-01T06:46:25;18.63;;;8.10;;
4563;SDS011;2294;51.818;8.484;2023-08-01T06:48:54;14.60;;;7.80;;
4563;SDS011;2294;51.818;8.484;2023-08-01T06:51:21;16.07;;;8.07;;
4563;SDS011;2294;51.818;8.484;2023-08-01T06:53:48;19.90;;;8.53;;
4563;SDS011;2294;51.818;8.484;2023-08-01T06:56:15;16.60;;;8.40;;
4563;SDS011;2294;51.818;8.484;2023-08-01T06:58:42;24.73;;;10.33;;
4563;SDS011;2294;51.818;8.484;2023-08-01T07:01:08;21.70;;;10.23;;
4563;SDS011;2294;51.818;8.484;2023-08-01T07:03:35;17.03;;;9.10;;
4563;SDS011;2294;51.818;8.484;2023-08-01T07:06:03;23.97;;;10.70;;
4563;SDS011;2294;51.818;8.484;2023-08-01T07:08:30;17.10;;;8.97;;
4563;SDS011;2294;51.818;8.484;2023-08-01T07:10:58;23.77;;;10.80;;
4563;SDS011;2294;51.818;8.484;2023-08-01T07:13:25;20.30;;;10.77;;
4563;SDS011;2294;51.818;8.484;2023-08-01T07:15:52;19.13;;;9.80;;
4563;SDS011;2294;51.818;8.484;2023-08-01T07:18:19;17.20;;;9.27;;
4563;SDS011;2294;51.818;8.484;2023-08-01T07:20:46;19.20;;;10.90;;
4563;SDS011;2294;51.818;8.484;2023-08-01T07:23:14;19.00;;;10.90;;
4563;SDS011;2294;51.818;8.484;2023-08-01T07:25:41;20.73;;;11.30;;
4563;SDS011;2294;51.818;8.484;2023-08-01T07:28:08;17.10;;;10.20;;
4563;SDS011;2294;51.818;8.484;2023-08-01T07:30:35;25.70;;;11.43;;
4563;SDS011;2294;51.818;8.484;2023-08-01T07:33:02;19.40;;;10.10;;
4563;SDS011;2294;51.818;8.484;2023-08-01T07:35:29;24.50;;;12.00;;
4563;SDS011;2294;51.818;8.484;2023-08-01T07:37:55;22.77;;;11.97;;
4563;SDS011;2294;51.818;8.484;2023-08-01T07:40:24;19.97;;;11.87;;
4563;SDS011;2294;51.818;8.484;2023-08-01T07:42:50;19.50;;;12.60;;
4563;SDS011;2294;51.818;8.484;2023-08-01T07:45:17;30.00;;;15.47;;
4563;SDS011;2294;51.818;8.484;2023-08-01T07:47:45;24.53;;;14.53;;
4563;SDS011;2294;51.818;8.484;2023-08-01T07:50:12;22.37;;;15.17;;
4563;SDS011;2294;51.818;8.484;2023-08-01T07:52:39;26.63;;;13.60;;
4563;SDS011;2294;51.818;8.484;2023-08-01T07:55:06;22.23;;;15.60;;
4563;SDS011;2294;51.818;8.484;2023-08-01T07:57:34;24.30;;;13.70;;
4563;SDS011;2294;51.818;8.484;2023-08-01T08:00:02;28.07;;;15.30;;
4563;SDS011;2294;51.818;8.484;2023-08-01T08:02:29;20.07;;;13.33;;
4563;SDS011;2294;51.818;8.484;2023-08-01T08:04:56;24.70;;;14.03;;
4563;SDS011;2294;51.818;8.484;2023-08-01T08:07:23;29.43;;;14.57;;
4563;SDS011;2294;51.818;8.484;2023-08-01T08:09:50;25.93;;;14.50;;
4563;SDS011;2294;51.818;8.484;2023-08-01T08:12:20;22.30;;;13.00;;
4563;SDS011;2294;51.818;8.484;2023-08-01T08:14:48;24.37;;;13.83;;
4563;SDS011;2294;51.818;8.484;2023-08-01T08:17:15;23.27;;;13.70;;
4563;SDS011;2294;51.818;8.484;2023-08-01T08:19:42;26.60;;;14.50;;
4563;SDS011;2294;51.818;8.484;2023-08-01T08:22:09;28.83;;;16.63;;
4563;SDS011;2294;51.818;8.484;2023-08-01T08:24:35;23.23;;;14.50;;
4563;SDS011;2294;51.818;8.484;2023-08-01T08:27:02;23.50;;;14.30;;
4563;SDS011;2294;51.818;8.484;2023-08-01T08:29:30;24.30;;;14.97;;
4563;SDS011;2294;51.818;8.484;2023-08-01T08:31:59;31.50;;;14.20;;
4563;SDS011;2294;51.818;8.484;2023-08-01T08:34:26;22.70;;;15.30;;
4563;SDS011;2294;51.818;8.484;2023-08-01T08:36:53;25.70;;;11.83;;
4563;SDS011;2294;51.818;8.484;2023-08-01T08:39:20;26.50;;;12.37;;
4563;SDS011;2294;51.818;8.484;2023-08-01T08:41:47;27.67;;;13.37;;
4563;SDS011;2294;51.818;8.484;2023-08-01T08:44:15;17.83;;;11.13;;
4563;SDS011;2294;51.818;8.484;2023-08-01T08:46:44;21.53;;;11.47;;
4563;SDS011;2294;51.818;8.484;2023-08-01T08:49:14;17.40;;;11.87;;
4563;SDS011;2294;51.818;8.484;2023-08-01T08:51:42;22.77;;;12.60;;
4563;SDS011;2294;51.818;8.484;2023-08-01T08:54:11;25.33;;;16.10;;
4563;SDS011;2294;51.818;8.484;2023-08-01T08:56:39;26.83;;;14.23;;
4563;SDS011;2294;51.818;8.484;2023-08-01T08:59:06;26.30;;;14.13;;
4563;SDS011;2294;51.818;8.484;2023-08-01T09:01:35;21.70;;;14.10;;
4563;SDS011;2294;51.818;8.484;2023-08-01T09:04:02;26.70;;;14.77;;
4563;SDS011;2294;51.818;8.484;2023-08-01T09:06:31;29.00;;;17.13;;
4563;SDS011;2294;51.818;8.484;2023-08-01T09:09:01;31.67;;;16.70;;
4563;SDS011;2294;51.818;8.484;2023-08-01T09:11:35;23.97;;;16.17;;
4563;SDS011;2294;51.818;8.484;2023-08-01T09:14:07;28.83;;;16.43;;
4563;SDS011;2294;51.818;8.484;2023-08-01T09:16:33;26.53;;;17.10;;
4563;SDS011;2294;51.818;8.484;2023-08-01T09:19:01;22.93;;;14.13;;
4563;SDS011;2294;51.818;8.484;2023-08-01T09:21:32;22.30;;;14.83;;
4563;SDS011;2294;51.818;8.484;2023-08-01T09:24:07;21.43;;;13.57;;
4563;SDS011;2294;51.818;8.484;2023-08-01T09:26:34;23.30;;;11.87;;
4563;SDS011;2294;51.818;8.484;2023-08-01T09:29:01;17.30;;;11.83;;
4563;SDS011;2294;51.818;8.484;2023-08-01T09:31:29;16.10;;;11.50;;
4563;SDS011;2294;51.818;8.484;2023-08-01T09:33:56;18.67;;;11.17;;
4563;SDS011;2294;51.818;8.484;2023-08-01T09:36:23;20.50;;;11.30;;
4563;SDS011;2294;51.818;8.484;2023-08-01T09:38:57;19.33;;;10.60;;
4563;SDS011;2294;51.818;8.484;2023-08-01T09:41:25;31.63;;;11.80;;
4563;SDS011;2294;51.818;8.484;2023-08-01T09:43:52;21.30;;;11.20;;
4563;SDS011;2294;51.818;8.484;2023-08-01T09:46:19;17.20;;;11.23;;
4563;SDS011;2294;51.818;8.484;2023-08-01T09:48:46;19.03;;;10.00;;
4563;SDS011;2294;51.818;8.484;2023-08-01T09:51:13;18.23;;;9.50;;
4563;SDS011;2294;51.818;8.484;2023-08-01T09:53:49;14.23;;;9.10;;
4563;SDS011;2294;51.818;8.484;2023-08-01T09:56:19;16.23;;;9.37;;
4563;SDS011;2294;51.818;8.484;2023-08-01T09:58:48;13.43;;;8.27;;
4563;SDS011;2294;51.818;8.484;2023-08-01T10:01:16;11.50;;;8.10;;
4563;SDS011;2294;51.818;8.484;2023-08-01T10:03:46;16.97;;;9.10;;
4563;SDS011;2294;51.818;8.484;2023-08-01T10:06:14;16.33;;;8.40;;
4563;SDS011;2294;51.818;8.484;2023-08-01T10:08:45;10.73;;;7.10;;
4563;SDS011;2294;51.818;8.484;2023-08-01T10:11:13;18.33;;;8.13;;
4563;SDS011;2294;51.818;8.484;2023-08-01T10:13:42;15.77;;;7.70;;
4563;SDS011;2294;51.818;8.484;2023-08-01T10:16:10;14.97;;;8.33;;
4563;SDS011;2294;51.818;8.484;2023-08-01T10:18:37;11.50;;;6.93;;
4563;SDS011;2294;51.818;8.484;2023-08-01T10:21:05;12.33;;;6.80;;
4563;SDS011;2294;51.818;8.484;2023-08-01T10:23:33;14.27;;;7.13;;
4563;SDS011;2294;51.818;8.484;2023-08-01T10:26:01;12.10;;;5.40;;
4563;SDS011;2294;51.818;8.484;2023-08-01T10:28:32;12.37;;;5.90;;
4563;SDS011;2294;51.818;8.484;2023-08-01T10:31:10;14.00;;;5.80;;
4563;SDS011;2294;51.818;8.484;2023-08-01T10:33:39;16.63;;;5.10;;
4563;SDS011;2294;51.818;8.484;2023-08-01T10:36:14;11.80;;;5.50;;
4563;SDS011;2294;51.818;8.484;2023-08-01T10:38:48;9.77;;;5.07;;
4563;SDS011;2294;51.818;8.484;2023-08-01T10:41:19;13.97;;;4.80;;
4563;SDS011;2294;51.818;8.484;2023-08-01T10:43:47;13.87;;;5.73;;
4563;SDS011;2294;51.818;8.484;2023-08-01T10:46:15;11.00;;;4.60;;
4563;SDS011;2294;51.818;8.484;2023-08-01T10:48:49;13.57;;;4.17;;
4563;SDS011;2294;51.818;8.484;2023-08-01T10:51:17;10.77;;;5.30;;
4563;SDS011;2294;51.818;8.484;2023-08-01T10:53:44;8.80;;;4.90;;
4563;SDS011;2294;51.818;8.484;2023-08-01T10:56:18;13.33;;;5.87;;
4563;SDS011;2294;51.818;8.484;2023-08-01T10:58:46;14.03;;;6.40;;
4563;SDS011;2294;51.818;8.484;2023-08-01T11:01:13;9.77;;;5.00;;
4563;SDS011;2294;51.818;8.484;2023-08-01T11:03:41;24.13;;;5.53;;
4563;SDS011;2294;51.818;8.484;2023-08-01T11:06:09;7.50;;;4.00;;
4563;SDS011;2294;51.818;8.484;2023-08-01T11:08:36;11.43;;;4.80;;
4563;SDS011;2294;51.818;8.484;2023-08-01T11:11:07;11.70;;;4.90;;
4563;SDS011;2294;51.818;8.484;2023-08-01T11:13:37;15.33;;;5.20;;
4563;SDS011;2294;51.818;8.484;2023-08-01T11:16:04;10.13;;;4.40;;
4563;SDS011;2294;51.818;8.484;2023-08-01T11:18:40;9.70;;;4.43;;
4563;SDS011;2294;51.818;8.484;2023-08-01T11:21:10;12.00;;;5.20;;
4563;SDS011;2294;51.818;8.484;2023-08-01T11:23:36;10.40;;;3.90;;
4563;SDS011;2294;51.818;8.484;2023-08-01T11:26:06;11.03;;;4.90;;
4563;SDS011;2294;51.818;8.484;2023-08-01T11:28:34;8.23;;;4.20;;
4563;SDS011;2294;51.818;8.484;2023-08-01T11:31:05;11.90;;;5.13;;
4563;SDS011;2294;51.818;8.484;2023-08-01T11:33:36;12.27;;;5.33;;
4563;SDS011;2294;51.818;8.484;2023-08-01T11:36:05;11.70;;;4.57;;
4563;SDS011;2294;51.818;8.484;2023-08-01T11:38:32;10.30;;;5.40;;
4563;SDS011;2294;51.818;8.484;2023-08-01T11:41:00;13.97;;;6.10;;
4563;SDS011;2294;51.818;8.484;2023-08-01T11:43:37;10.60;;;6.27;;
4563;SDS011;2294;51.818;8.484;2023-08-01T11:46:04;10.50;;;5.87;;
4563;SDS011;2294;51.818;8.484;2023-08-01T11:48:31;14.40;;;6.40;;
4563;SDS011;2294;51.818;8.484;2023-08-01T11:50:58;11.97;;;6.20;;
4563;SDS011;2294;51.818;8.484;2023-08-01T11:53:27;14.30;;;6.00;;
4563;SDS011;2294;51.818;8.484;2023-08-01T11:55:54;10.80;;;6.40;;
4563;SDS011;2294;51.818;8.484;2023-08-01T11:58:28;14.73;;;5.43;;
4563;SDS011;2294;51.818;8.484;2023-08-01T12:01:07;11.27;;;5.10;;
4563;SDS011;2294;51.818;8.484;2023-08-01T12:03:43;19.30;;;5.20;;
4563;SDS011;2294;51.818;8.484;2023-08-01T12:06:10;14.03;;;5.27;;
4563;SDS011;2294;51.818;8.484;2023-08-01T12:08:40;10.50;;;4.30;;
4563;SDS011;2294;51.818;8.484;2023-08-01T12:11:16;11.93;;;4.40;;
4563;SDS011;2294;51.818;8.484;2023-08-01T12:13:44;9.00;;;3.93;;
4563;SDS011;2294;51.818;8.484;2023-08-01T12:16:11;12.83;;;4.00;;
4563;SDS011;2294;51.818;8.484;2023-08-01T12:18:40;6.80;;;3.03;;
4563;SDS011;2294;51.818;8.484;2023-08-01T12:21:10;7.40;;;3.20;;
4563;SDS011;2294;51.818;8.484;2023-08-01T12:23:37;8.03;;;4.30;;
4563;SDS011;2294;51.818;8.484;2023-08-01T12:26:05;9.10;;;2.70;;
4563;SDS011;2294;51.818;8.484;2023-08-01T12:28:33;7.70;;;3.60;;
4563;SDS011;2294;51.818;8.484;2023-08-01T12:31:00;8.03;;;3.57;;
4563;SDS011;2294;51.818;8.484;2023-08-01T12:33:26;7.87;;;4.20;;
4563;SDS011;2294;51.818;8.484;2023-08-01T12:35:53;7.13;;;2.77;;
4563;SDS011;2294;51.818;8.484;2023-08-01T12:38:20;5.60;;;1.83;;
4563;SDS011;2294;51.818;8.484;2023-08-01T12:40:47;12.60;;;2.00;;
4563;SDS011;2294;51.818;8.484;2023-08-01T12:43:16;9.10;;;2.83;;
4563;SDS011;2294;51.818;8.484;2023-08-01T12:45:43;6.67;;;2.10;;
4563;SDS011;2294;51.818;8.484;2023-08-01T12:48:12;9.37;;;2.40;;
4563;SDS011;2294;51.818;8.484;2023-08-01T12:50:42;8.77;;;2.43;;
4563;SDS011;2294;51.818;8.484;2023-08-01T12:53:10;8.60;;;3.17;;
4563;SDS011;2294;51.818;8.484;2023-08-01T12:55:37;8.17;;;3.30;;
4563;SDS011;2294;51.818;8.484;2023-08-01T12:58:03;7.83;;;2.27;;
4563;SDS011;2294;51.818;8.484;2023-08-01T13:00:32;8.60;;;2.90;;
4563;SDS011;2294;51.818;8.484;2023-08-01T13:02:59;7.43;;;2.20;;
4563;SDS011;2294;51.818;8.484;2023-08-01T13:05:25;6.70;;;2.50;;
4563;SDS011;2294;51.818;8.484;2023-08-01T13:07:52;6.93;;;2.03;;
4563;SDS011;2294;51.818;8.484;2023-08-01T13:10:19;6.00;;;2.03;;
4563;SDS011;2294;51.818;8.484;2023-08-01T13:12:46;7.33;;;2.93;;
4563;SDS011;2294;51.818;8.484;2023-08-01T13:15:13;8.13;;;2.40;;
4563;SDS011;2294;51.818;8.484;2023-08-01T13:17:41;11.60;;;3.93;;
4563;SDS011;2294;51.818;8.484;2023-08-01T13:20:09;6.20;;;2.70;;
4563;SDS011;2294;51.818;8.484;2023-08-01T13:22:36;7.60;;;2.53;;
4563;SDS011;2294;51.818;8.484;2023-08-01T13:25:03;6.50;;;2.50;;
4563;SDS011;2294;51.818;8.484;2023-08-01T13:27:31;7.43;;;2.63;;
4563;SDS011;2294;51.818;8.484;2023-08-01T13:29:59;9.73;;;3.10;;
4563;SDS011;2294;51.818;8.484;2023-08-01T13:32:26;7.73;;;3.13;;
4563;SDS011;2294;51.818;8.484;2023-08-01T13:34:54;11.67;;;2.60;;
4563;SDS011;2294;51.818;8.484;2023-08-01T13:37:21;7.63;;;2.67;;
4563;SDS011;2294;51.818;8.484;2023-08-01T13:39:48;9.30;;;2.53;;
4563;SDS011;2294;51.818;8.484;2023-08-01T13:42:15;10.10;;;2.60;;
4563;SDS011;2294;51.818;8.484;2023-08-01T13:44:42;7.73;;;2.77;;
4563;SDS011;2294;51.818;8.484;2023-08-01T13:47:09;9.23;;;2.77;;
4563;SDS011;2294;51.818;8.484;2023-08-01T13:49:36;6.00;;;2.50;;
4563;SDS011;2294;51.818;8.484;2023-08-01T13:52:05;8.30;;;2.77;;
4563;SDS011;2294;51.818;8.484;2023-08-01T13:54:32;7.03;;;2.50;;
4563;SDS011;2294;51.818;8.484;2023-08-01T13:56:59;9.43;;;2.93;;
4563;SDS011;2294;51.818;8.484;2023-08-01T13:59:26;8.70;;;3.00;;
4563;SDS011;2294;51.818;8.484;2023-08-01T14:01:53;8.27;;;2.90;;
4563;SDS011;2294;51.818;8.484;2023-08-01T14:04:20;9.20;;;3.47;;
4563;SDS011;2294;51.818;8.484;2023-08-01T14:06:47;10.03;;;3.00;;
4563;SDS011;2294;51.818;8.484;2023-08-01T14:09:15;7.83;;;2.70;;
4563;SDS011;2294;51.818;8.484;2023-08-01T14:11:42;12.00;;;3.30;;
4563;SDS011;2294;51.818;8.484;2023-08-01T14:14:09;12.00;;;2.67;;
4563;SDS011;2294;51.818;8.484;2023-08-01T14:16:36;6.63;;;2.43;;
4563;SDS011;2294;51.818;8.484;2023-08-01T14:19:02;7.07;;;1.90;;
4563;SDS011;2294;51.818;8.484;2023-08-01T14:21:31;6.40;;;1.90;;
4563;SDS011;2294;51.818;8.484;2023-08-01T14:23:59;7.60;;;2.10;;
4563;SDS011;2294;51.818;8.484;2023-08-01T14:26:27;8.63;;;2.10;;
4563;SDS011;2294;51.818;8.484;2023-08-01T14:28:54;6.97;;;2.00;;
4563;SDS011;2294;51.818;8.484;2023-08-01T14:31:21;6.77;;;1.67;;
4563;SDS011;2294;51.818;8.484;2023-08-01T14:33:48;6.10;;;1.60;;
4563;SDS011;2294;51.818;8.484;2023-08-01T14:36:15;5.53;;;1.47;;
4563;SDS011;2294;51.818;8.484;2023-08-01T14:38:41;6.17;;;1.80;;
4563;SDS011;2294;51.818;8.484;2023-08-01T14:41:08;6.00;;;1.70;;
4563;SDS011;2294;51.818;8.484;2023-08-01T14:43:36;11.97;;;1.63;;
4563;SDS011;2294;51.818;8.484;2023-08-01T14:46:03;5.73;;;1.83;;
4563;SDS011;2294;51.818;8.484;2023-08-01T14:48:30;7.47;;;2.30;;
4563;SDS011;2294;51.818;8.484;2023-08-01T14:50:57;5.57;;;1.83;;
4563;SDS011;2294;51.818;8.484;2023-08-01T14:53:24;7.20;;;1.97;;
4563;SDS011;2294;51.818;8.484;2023-08-01T14:55:57;7.57;;;2.17;;
4563;SDS011;2294;51.818;8.484;2023-08-01T14:58:25;9.07;;;1.87;;
4563;SDS011;2294;51.818;8.484;2023-08-01T15:00:55;7.70;;;2.30;;
4563;SDS011;2294;51.818;8.484;2023-08-01T15:03:21;8.60;;;2.10;;
4563;SDS011;2294;51.818;8.484;2023-08-01T15:05:49;6.13;;;1.70;;
4563;SDS011;2294;51.818;8.484;2023-08-01T15:08:15;9.10;;;2.17;;